Time;durP1;ratioP1;P1;durP2;ratioP2;P2;SDS_P1;SDS_P2;PMS_P1;PMS_P2;Temp;Humidity;BMP_temperature;BMP_pressure;BME280_temperature;BME280_humidity;BME280_pressure;Samples;Min_cycle;Max_cycle;Signal;HPM_P1;HPM_P2
2022/03/07 00:00:38;;;;;;;13.98;7.88;;;0.00;67.20;;;;;;5041079;28;20040;-81
2022/03/07 00:03:04;;;;;;;17.23;7.70;;;0.00;67.50;;;;;;5048422;28;20053;-80
2022/03/07 00:05:30;;;;;;;12.10;7.97;;;0.00;67.40;;;;;;5020873;28;20060;-81
2022/03/07 00:07:56;;;;;;;12.10;7.95;;;0.00;67.40;;;;;;5037288;28;20029;-80
2022/03/07 00:10:21;;;;;;;13.20;7.78;;;0.00;67.80;;;;;;5034708;28;20041;-81
2022/03/07 00:12:47;;;;;;;11.80;7.50;;;0.00;67.80;;;;;;5054402;28;20113;-81
2022/03/07 00:15:15;;;;;;;13.07;8.45;;;0.10;67.70;;;;;;5042490;28;20027;-81
2022/03/07 00:17:41;;;;;;;16.88;9.40;;;0.00;67.80;;;;;;5023923;28;20360;-80
2022/03/07 00:20:07;;;;;;;14.57;7.60;;;0.00;68.20;;;;;;5041153;28;20022;-80
2022/03/07 00:22:33;;;;;;;16.98;8.75;;;0.00;68.40;;;;;;5051129;28;20041;-80
2022/03/07 00:24:59;;;;;;;10.68;7.30;;;0.00;68.80;;;;;;5056378;28;20044;-81
2022/03/07 00:27:25;;;;;;;11.50;8.07;;;0.00;69.70;;;;;;5053988;28;20037;-81
2022/03/07 00:29:50;;;;;;;12.27;7.88;;;0.00;69.60;;;;;;5057843;28;20029;-81
2022/03/07 00:32:16;;;;;;;16.30;9.05;;;0.00;70.00;;;;;;5041040;28;20085;-81
2022/03/07 00:34:42;;;;;;;12.25;8.05;;;-0.10;70.60;;;;;;5054150;28;20014;-81
2022/03/07 00:37:07;;;;;;;13.68;8.30;;;0.00;71.10;;;;;;5029449;28;20026;-81
2022/03/07 00:39:33;;;;;;;14.90;7.95;;;0.00;71.40;;;;;;5057356;28;20063;-81
2022/03/07 00:41:59;;;;;;;14.15;8.07;;;-0.10;71.90;;;;;;5044398;28;20029;-80
2022/03/07 00:44:25;;;;;;;15.05;8.40;;;-0.10;72.50;;;;;;5021574;28;20061;-80
2022/03/07 00:46:50;;;;;;;12.20;7.88;;;-0.10;73.00;;;;;;5055630;28;20018;-80
2022/03/07 00:49:16;;;;;;;15.70;8.90;;;-0.10;73.20;;;;;;5049043;28;20101;-81
2022/03/07 00:51:42;;;;;;;13.80;8.57;;;-0.10;74.00;;;;;;5038771;28;20018;-81
2022/03/07 00:54:08;;;;;;;12.07;8.25;;;-0.20;74.20;;;;;;5037822;28;20033;-81
2022/03/07 00:56:33;;;;;;;13.63;8.27;;;-0.20;74.70;;;;;;5037936;28;20093;-81
2022/03/07 00:58:59;;;;;;;12.07;7.72;;;-0.20;75.10;;;;;;5036810;28;20025;-81
2022/03/07 01:01:25;;;;;;;12.02;8.13;;;-0.20;75.50;;;;;;5037076;28;20464;-80
2022/03/07 01:03:51;;;;;;;14.70;8.55;;;-0.20;75.80;;;;;;5037552;28;20389;-80
2022/03/07 01:06:16;;;;;;;15.25;9.20;;;-0.20;76.30;;;;;;5024951;28;20040;-80
2022/03/07 01:08:42;;;;;;;14.55;8.95;;;-0.20;77.00;;;;;;5033817;28;20033;-80
2022/03/07 01:11:08;;;;;;;13.35;8.90;;;-0.30;77.60;;;;;;5027360;28;20022;-80
2022/03/07 01:13:34;;;;;;;14.05;9.38;;;-0.30;78.00;;;;;;5011104;28;20045;-80
2022/03/07 01:15:59;;;;;;;13.75;8.68;;;-0.30;78.50;;;;;;5028644;28;20053;-80
2022/03/07 01:18:25;;;;;;;15.68;8.85;;;-0.30;78.60;;;;;;5028944;28;20040;-80
2022/03/07 01:20:52;;;;;;;17.48;9.10;;;-0.30;79.00;;;;;;5029550;28;20017;-81
2022/03/07 01:23:18;;;;;;;20.15;10.00;;;-0.30;79.50;;;;;;5031636;28;20089;-81
2022/03/07 01:25:43;;;;;;;15.68;9.15;;;-0.30;79.90;;;;;;5031429;28;20439;-81
2022/03/07 01:28:10;;;;;;;17.13;9.73;;;-0.30;80.20;;;;;;5013425;28;20033;-81
2022/03/07 01:30:36;;;;;;;15.95;10.23;;;-0.30;80.60;;;;;;5008223;28;20057;-81
2022/03/07 01:33:02;;;;;;;14.50;9.55;;;-0.30;81.00;;;;;;5023743;28;20030;-81
2022/03/07 01:35:27;;;;;;;14.90;9.88;;;-0.40;81.60;;;;;;5024832;28;20029;-81
2022/03/07 01:37:53;;;;;;;19.90;11.63;;;-0.40;82.00;;;;;;5027075;28;20029;-80
2022/03/07 01:40:19;;;;;;;20.73;11.85;;;-0.40;82.40;;;;;;5043721;28;20037;-81
2022/03/07 01:42:45;;;;;;;20.15;10.88;;;-0.40;82.90;;;;;;5043922;28;20025;-81
2022/03/07 01:45:13;;;;;;;19.83;11.32;;;-0.40;83.30;;;;;;5046479;28;20195;-80
2022/03/07 01:47:39;;;;;;;15.43;10.73;;;-0.40;83.70;;;;;;5045920;28;20037;-81
2022/03/07 01:50:07;;;;;;;17.73;10.68;;;-0.40;83.90;;;;;;5041532;28;20083;-80
2022/03/07 01:52:36;;;;;;;16.67;11.00;;;-0.50;84.30;;;;;;5042836;28;20485;-81
2022/03/07 01:55:03;;;;;;;18.08;11.38;;;-0.40;84.50;;;;;;5040617;28;20025;-81
2022/03/07 01:57:30;;;;;;;18.90;12.00;;;-0.40;84.90;;;;;;5040215;28;20030;-80
2022/03/07 01:59:56;;;;;;;19.00;11.02;;;-0.50;84.40;;;;;;5026995;28;20022;-81
2022/03/07 02:02:24;;;;;;;22.27;12.93;;;-0.50;85.10;;;;;;5018232;28;20037;-81
2022/03/07 02:04:51;;;;;;;22.15;12.95;;;-0.50;85.60;;;;;;5018679;28;20018;-81
2022/03/07 02:07:17;;;;;;;19.38;12.02;;;-0.40;85.00;;;;;;5018094;28;20041;-81
2022/03/07 02:09:43;;;;;;;19.08;13.05;;;-0.40;85.10;;;;;;5017582;28;20535;-82
2022/03/07 02:12:09;;;;;;;21.25;13.25;;;-0.50;85.40;;;;;;5018774;28;20030;-80
2022/03/07 02:14:35;;;;;;;17.60;12.32;;;-0.50;86.00;;;;;;5021054;28;20026;-81
2022/03/07 02:17:01;;;;;;;18.55;12.18;;;-0.60;86.70;;;;;;5025541;28;20086;-81
2022/03/07 02:19:27;;;;;;;21.70;12.48;;;-0.70;87.40;;;;;;5035782;28;20060;-81
2022/03/07 02:22:06;;;;;;;16.00;11.68;;;-0.70;87.60;;;;;;5034958;28;20038;-81
2022/03/07 02:24:32;;;;;;;18.00;13.13;;;-0.70;88.00;;;;;;5032561;28;20514;-82
2022/03/07 02:27:00;;;;;;;19.27;12.80;;;-0.60;86.70;;;;;;5033932;28;20085;-82
2022/03/07 02:29:26;;;;;;;18.98;11.68;;;-0.60;87.40;;;;;;5016623;28;20041;-82
2022/03/07 02:31:52;;;;;;;23.17;13.57;;;-0.70;88.30;;;;;;5034438;28;20022;-80
2022/03/07 02:34:18;;;;;;;20.67;12.57;;;-0.70;87.90;;;;;;5016300;28;20373;-82
2022/03/07 02:36:44;;;;;;;18.02;12.55;;;-0.70;87.50;;;;;;5033735;28;20021;-81
2022/03/07 02:39:10;;;;;;;19.58;12.32;;;-0.70;87.50;;;;;;5015441;28;20073;-81
2022/03/07 02:41:37;;;;;;;19.30;12.55;;;-0.70;87.80;;;;;;5015096;28;20030;-81
2022/03/07 02:44:04;;;;;;;20.80;12.50;;;-0.80;88.10;;;;;;5032197;28;20018;-81
2022/03/07 02:46:30;;;;;;;20.25;11.15;;;-0.80;88.70;;;;;;5030996;28;20030;-81
2022/03/07 02:48:56;;;;;;;19.23;11.40;;;-0.80;88.30;;;;;;5016882;28;20026;-82
2022/03/07 02:51:22;;;;;;;17.27;10.93;;;-0.80;87.70;;;;;;5034291;28;20014;-81
2022/03/07 02:53:49;;;;;;;18.13;11.25;;;-0.80;87.00;;;;;;5034723;28;20033;-80
2022/03/07 02:56:15;;;;;;;15.00;10.15;;;-0.90;87.40;;;;;;5034101;28;20018;-81
2022/03/07 02:58:41;;;;;;;16.25;10.38;;;-0.90;87.80;;;;;;5034510;28;20045;-81
2022/03/07 03:01:07;;;;;;;16.80;9.55;;;-0.90;87.60;;;;;;5035444;28;20053;-81
2022/03/07 03:03:33;;;;;;;14.30;9.60;;;-0.90;87.10;;;;;;5035477;28;20033;-80
2022/03/07 03:05:59;;;;;;;14.70;9.60;;;-0.90;87.10;;;;;;5018057;28;20026;-82
2022/03/07 03:08:26;;;;;;;17.45;9.75;;;-0.90;87.10;;;;;;5017913;28;20045;-81
2022/03/07 03:10:53;;;;;;;17.67;9.98;;;-0.90;86.80;;;;;;5034316;28;20076;-81
2022/03/07 03:13:20;;;;;;;14.93;9.50;;;-0.90;86.80;;;;;;5028003;28;20022;-82
2022/03/07 03:15:46;;;;;;;16.45;9.27;;;-0.90;86.80;;;;;;5029646;28;20040;-82
2022/03/07 03:18:13;;;;;;;16.75;9.07;;;-0.90;86.20;;;;;;5030171;28;20026;-80
2022/03/07 03:20:39;;;;;;;15.68;9.13;;;-0.90;86.30;;;;;;5030331;28;20045;-82
2022/03/07 03:23:05;;;;;;;13.18;8.43;;;-0.80;85.40;;;;;;5011977;28;20049;-82
2022/03/07 03:25:31;;;;;;;13.02;8.50;;;-0.80;84.60;;;;;;5030300;28;20089;-80
2022/03/07 03:27:58;;;;;;;15.23;9.00;;;-0.90;84.60;;;;;;5038279;28;20065;-81
2022/03/07 03:30:23;;;;;;;14.18;8.35;;;-0.80;84.00;;;;;;5048874;28;20052;-81
2022/03/07 03:32:49;;;;;;;10.82;7.20;;;-0.90;83.70;;;;;;5052825;28;20025;-82
2022/03/07 03:35:15;;;;;;;15.05;7.25;;;-0.90;83.80;;;;;;5055882;28;20184;-82
2022/03/07 03:37:41;;;;;;;13.13;7.85;;;-0.90;84.20;;;;;;5056801;28;20089;-81
2022/03/07 03:40:10;;;;;;;11.85;7.40;;;-0.90;82.10;;;;;;5056495;28;20037;-82
2022/03/07 03:42:36;;;;;;;10.75;7.32;;;-0.90;81.70;;;;;;5054663;28;20051;-81
2022/03/07 03:45:05;;;;;;;11.60;6.97;;;-1.00;81.70;;;;;;5052152;28;20108;-82
2022/03/07 03:47:32;;;;;;;12.52;7.00;;;-1.00;81.30;;;;;;5051182;28;20030;-81
2022/03/07 03:49:58;;;;;;;12.98;6.90;;;-1.10;82.00;;;;;;5052312;28;20029;-81
2022/03/07 03:52:24;;;;;;;16.08;7.88;;;-1.10;82.30;;;;;;5051444;28;20028;-80
2022/03/07 03:54:49;;;;;;;10.88;7.43;;;-1.10;82.60;;;;;;5050794;28;20029;-80
2022/03/07 03:57:15;;;;;;;12.52;7.63;;;-1.10;82.50;;;;;;5025136;28;20025;-81
2022/03/07 03:59:41;;;;;;;10.88;6.68;;;-1.10;82.00;;;;;;5038545;28;20021;-80
2022/03/07 04:02:07;;;;;;;11.55;7.10;;;-1.10;82.30;;;;;;5029644;28;20034;-81
2022/03/07 04:04:33;;;;;;;13.52;6.95;;;-1.10;82.20;;;;;;5029249;28;20025;-81
2022/03/07 04:06:59;;;;;;;14.40;7.90;;;-1.00;82.30;;;;;;5047394;28;20390;-81
2022/03/07 04:09:25;;;;;;;11.15;6.97;;;-1.00;81.10;;;;;;5028389;28;20029;-81
2022/03/07 04:11:51;;;;;;;10.23;7.38;;;-1.00;81.50;;;;;;5042503;28;20026;-81
2022/03/07 04:14:17;;;;;;;10.93;7.28;;;-1.00;81.30;;;;;;5025315;28;20033;-81
2022/03/07 04:16:43;;;;;;;17.20;7.75;;;-1.00;81.70;;;;;;5043919;28;20055;-81
2022/03/07 04:19:11;;;;;;;13.20;7.20;;;-1.10;82.00;;;;;;5046640;28;20018;-81
2022/03/07 04:21:39;;;;;;;10.82;6.78;;;-1.10;82.10;;;;;;5051907;28;20041;-81
2022/03/07 04:24:06;;;;;;;12.15;7.70;;;-1.10;82.20;;;;;;5049907;28;20040;-81
2022/03/07 04:26:31;;;;;;;12.98;7.55;;;-1.10;81.60;;;;;;5016069;28;20029;-81
2022/03/07 04:28:57;;;;;;;10.90;6.97;;;-1.10;81.80;;;;;;5028578;28;20049;-81
2022/03/07 04:31:23;;;;;;;7.95;6.25;;;-1.10;81.80;;;;;;5020835;28;20033;-81
2022/03/07 04:33:49;;;;;;;14.10;7.85;;;-1.10;82.10;;;;;;5003180;28;20037;-81
2022/03/07 04:36:17;;;;;;;11.00;7.18;;;-1.10;81.80;;;;;;5020201;28;20032;-81
2022/03/07 04:38:43;;;;;;;14.75;7.65;;;-1.10;81.60;;;;;;5020519;28;20033;-80
2022/03/07 04:41:09;;;;;;;13.40;7.63;;;-1.10;82.10;;;;;;5020183;28;20034;-81
2022/03/07 04:43:34;;;;;;;10.38;7.15;;;-1.10;81.50;;;;;;5003090;28;20029;-81
2022/03/07 04:46:02;;;;;;;11.65;7.43;;;-1.10;82.00;;;;;;5020198;28;20526;-81
2022/03/07 04:48:28;;;;;;;10.30;6.57;;;-1.10;81.90;;;;;;5020964;28;20025;-81
2022/03/07 04:50:53;;;;;;;11.48;7.07;;;-1.10;82.40;;;;;;5020451;28;20025;-81
2022/03/07 04:53:19;;;;;;;10.43;7.45;;;-1.10;82.40;;;;;;5020915;28;20026;-81
2022/03/07 04:55:45;;;;;;;12.20;7.78;;;-1.10;82.40;;;;;;5020683;28;20056;-81
2022/03/07 04:58:11;;;;;;;12.68;6.80;;;-1.10;82.10;;;;;;5012984;28;20034;-81
2022/03/07 05:00:36;;;;;;;11.95;7.28;;;-1.10;82.30;;;;;;5040087;28;20029;-83
2022/03/07 05:03:02;;;;;;;13.93;7.53;;;-1.10;82.40;;;;;;5022630;28;20043;-82
2022/03/07 05:05:28;;;;;;;11.75;6.93;;;-1.10;81.90;;;;;;5039983;28;20517;-82
2022/03/07 05:07:53;;;;;;;14.85;7.22;;;-1.10;82.00;;;;;;5040465;28;20025;-82
2022/03/07 05:10:20;;;;;;;14.65;7.60;;;-1.10;81.90;;;;;;5038552;28;20107;-82
2022/03/07 05:12:47;;;;;;;11.73;7.40;;;-1.10;82.10;;;;;;5039148;28;20048;-82
2022/03/07 05:15:13;;;;;;;11.93;7.25;;;-1.10;82.40;;;;;;5052330;28;20026;-82
2022/03/07 05:17:51;;;;;;;11.73;7.65;;;-1.20;82.40;;;;;;5041807;28;20061;-82
2022/03/07 05:20:17;;;;;;;11.43;7.15;;;-1.10;82.70;;;;;;5055054;28;20116;-82
2022/03/07 05:22:44;;;;;;;18.63;7.25;;;-1.20;82.70;;;;;;5038727;22;20034;-79
2022/03/07 05:25:11;;;;;;;10.50;6.97;;;-1.20;82.90;;;;;;5018525;28;20026;-78
2022/03/07 05:27:38;;;;;;;16.67;7.95;;;-1.10;82.70;;;;;;5021804;28;20022;-79
2022/03/07 05:30:05;;;;;;;14.02;7.50;;;-1.20;82.60;;;;;;5007604;28;20034;-79
2022/03/07 05:32:31;;;;;;;14.70;7.80;;;-1.10;82.30;;;;;;5024232;28;20025;-80
2022/03/07 05:34:58;;;;;;;11.85;7.82;;;-1.10;82.20;;;;;;5024291;28;20018;-79
2022/03/07 05:37:24;;;;;;;15.00;7.95;;;-1.10;82.30;;;;;;5026983;28;20081;-77
2022/03/07 05:39:49;;;;;;;15.25;7.80;;;-1.10;82.50;;;;;;5029606;28;20045;-78
2022/03/07 05:42:15;;;;;;;13.75;7.68;;;-1.10;82.60;;;;;;5027365;28;20105;-78
2022/03/07 05:44:41;;;;;;;11.18;7.65;;;-1.00;81.70;;;;;;5025847;28;20398;-82
2022/03/07 05:47:07;;;;;;;11.73;7.97;;;-1.00;81.30;;;;;;5007290;28;20033;-77
2022/03/07 05:49:32;;;;;;;14.93;8.15;;;-1.00;81.00;;;;;;5025211;28;20108;-81
2022/03/07 05:51:59;;;;;;;13.85;8.45;;;-1.10;81.20;;;;;;5023529;28;20306;-78
2022/03/07 05:54:24;;;;;;;13.55;7.40;;;-1.10;82.00;;;;;;5023317;28;20333;-79
2022/03/07 05:56:50;;;;;;;15.23;8.10;;;-1.20;82.50;;;;;;5005691;28;20026;-80
2022/03/07 05:59:16;;;;;;;12.85;8.70;;;-1.20;82.90;;;;;;5027006;28;20022;-81
2022/03/07 06:01:42;;;;;;;10.68;7.78;;;-1.20;83.00;;;;;;5003315;28;20101;-80
2022/03/07 06:04:08;;;;;;;11.57;7.80;;;-1.20;82.60;;;;;;5020346;28;20023;-79
2022/03/07 06:06:34;;;;;;;11.30;8.18;;;-1.10;82.70;;;;;;5002866;28;20549;-79
2022/03/07 06:09:00;;;;;;;11.98;7.65;;;-1.10;82.30;;;;;;5022994;28;20478;-79
2022/03/07 06:11:26;;;;;;;17.48;8.70;;;-1.10;82.60;;;;;;5018673;28;20037;-78
2022/03/07 06:13:51;;;;;;;14.80;8.20;;;-1.10;82.70;;;;;;5019221;28;20056;-78
2022/03/07 06:16:17;;;;;;;11.57;7.72;;;-1.00;82.40;;;;;;5022348;28;20033;-79
2022/03/07 06:18:43;;;;;;;12.70;7.78;;;-1.00;82.70;;;;;;5021060;28;20030;-79
2022/03/07 06:21:08;;;;;;;15.75;9.40;;;-1.00;82.10;;;;;;5032471;28;20030;-78
2022/03/07 06:23:36;;;;;;;16.55;8.25;;;-1.00;82.20;;;;;;5027635;28;20033;-78
2022/03/07 06:26:04;;;;;;;13.80;7.78;;;-1.00;82.40;;;;;;5018786;28;20026;-78
2022/03/07 06:28:29;;;;;;;13.90;8.18;;;-1.00;82.80;;;;;;5017918;28;20090;-78
2022/03/07 06:30:55;;;;;;;13.13;8.32;;;-1.00;82.50;;;;;;5017802;28;20050;-78
2022/03/07 06:33:21;;;;;;;13.30;8.73;;;-1.00;82.70;;;;;;5000166;28;20034;-77
2022/03/07 06:35:47;;;;;;;15.18;8.75;;;-1.00;82.80;;;;;;5013369;28;20045;-79
2022/03/07 06:38:13;;;;;;;13.73;8.75;;;-0.90;82.70;;;;;;5005801;28;20081;-79
2022/03/07 06:40:39;;;;;;;18.50;9.35;;;-0.90;82.10;;;;;;5016302;28;20042;-78
2022/03/07 06:43:04;;;;;;;14.23;8.85;;;-0.90;82.90;;;;;;5016793;28;20031;-79
2022/03/07 06:45:31;;;;;;;14.70;9.75;;;-0.90;82.70;;;;;;5010153;28;20031;-79
2022/03/07 06:47:59;;;;;;;11.90;8.60;;;-0.90;82.70;;;;;;5008582;28;20041;-79
2022/03/07 06:50:25;;;;;;;15.95;9.07;;;-0.80;82.40;;;;;;5008060;28;20030;-79
2022/03/07 06:52:52;;;;;;;16.98;9.45;;;-0.80;82.80;;;;;;5007509;28;20030;-79
2022/03/07 06:55:18;;;;;;;15.32;8.95;;;-0.80;83.00;;;;;;5013829;28;20078;-79
2022/03/07 06:57:44;;;;;;;17.70;10.25;;;-0.70;82.00;;;;;;5023620;28;20026;-78
2022/03/07 07:00:13;;;;;;;17.02;9.68;;;-0.70;81.90;;;;;;5023600;28;20029;-80
2022/03/07 07:02:39;;;;;;;16.30;9.25;;;-0.70;82.90;;;;;;5002373;28;20026;-79
2022/03/07 07:05:06;;;;;;;13.05;8.68;;;-0.60;83.30;;;;;;5004024;28;20070;-78
2022/03/07 07:07:32;;;;;;;19.50;10.98;;;-0.50;83.00;;;;;;5000613;28;20030;-78
2022/03/07 07:09:58;;;;;;;14.43;9.02;;;-0.50;81.10;;;;;;5001136;28;20033;-79
2022/03/07 07:12:24;;;;;;;13.23;9.30;;;-0.40;81.40;;;;;;5001591;28;20054;-78
2022/03/07 07:14:50;;;;;;;19.80;9.93;;;-0.30;82.00;;;;;;4998378;28;20516;-79
2022/03/07 07:17:16;;;;;;;13.80;9.75;;;-0.20;80.40;;;;;;4988524;28;20030;-78
2022/03/07 07:19:43;;;;;;;17.70;10.35;;;-0.10;80.40;;;;;;5022837;28;20093;-80
2022/03/07 07:22:09;;;;;;;15.75;9.70;;;-0.10;79.70;;;;;;4998072;28;20112;-79
2022/03/07 07:24:35;;;;;;;16.88;9.90;;;-0.10;80.40;;;;;;5012649;28;20088;-79
2022/03/07 07:27:01;;;;;;;19.40;9.73;;;0.00;80.20;;;;;;5023074;28;20129;-78
2022/03/07 07:29:26;;;;;;;18.60;10.18;;;0.00;79.30;;;;;;5019018;28;20036;-78
2022/03/07 07:31:52;;;;;;;15.32;9.50;;;0.00;78.80;;;;;;4984064;28;20081;-79
2022/03/07 07:34:19;;;;;;;18.13;11.02;;;0.00;79.10;;;;;;4998894;28;20030;-78
2022/03/07 07:36:45;;;;;;;20.38;11.02;;;0.10;78.90;;;;;;5016188;28;20041;-78
2022/03/07 07:39:11;;;;;;;22.23;11.43;;;0.00;78.80;;;;;;5003530;28;20082;-78
2022/03/07 07:41:36;;;;;;;19.77;10.93;;;0.10;79.20;;;;;;4998962;28;20084;-77
2022/03/07 07:44:03;;;;;;;21.55;11.55;;;0.20;78.70;;;;;;4998886;28;20048;-78
2022/03/07 07:46:28;;;;;;;17.42;10.75;;;0.30;78.10;;;;;;4999381;28;20035;-78
2022/03/07 07:48:54;;;;;;;16.63;11.02;;;0.40;78.80;;;;;;5001065;28;20037;-78
2022/03/07 07:51:20;;;;;;;20.33;10.95;;;0.50;78.70;;;;;;5000218;28;20085;-79
2022/03/07 07:53:46;;;;;;;22.60;11.18;;;0.60;78.50;;;;;;4990394;28;20022;-78
2022/03/07 07:56:12;;;;;;;17.02;10.77;;;0.70;77.20;;;;;;4997212;28;20102;-80
2022/03/07 07:58:39;;;;;;;22.00;12.38;;;0.80;76.20;;;;;;5024634;28;20061;-80
2022/03/07 08:01:05;;;;;;;19.17;11.55;;;0.80;75.30;;;;;;5022138;28;20028;-79
2022/03/07 08:03:31;;;;;;;20.27;11.13;;;1.00;75.20;;;;;;5012730;28;20511;-78
2022/03/07 08:05:57;;;;;;;16.45;11.13;;;1.00;75.30;;;;;;4997178;28;20026;-79
2022/03/07 08:08:23;;;;;;;24.23;11.68;;;1.00;73.80;;;;;;5003989;28;20038;-78
2022/03/07 08:10:48;;;;;;;28.83;12.73;;;1.00;73.90;;;;;;5009211;28;20368;-78
2022/03/07 08:13:14;;;;;;;38.58;13.98;;;1.00;73.40;;;;;;5001191;28;20027;-79
2022/03/07 08:15:40;;;;;;;19.58;12.63;;;1.10;74.40;;;;;;5001812;28;20108;-79
2022/03/07 08:18:07;;;;;;;19.02;11.43;;;1.10;73.50;;;;;;5001700;28;20400;-79
2022/03/07 08:20:33;;;;;;;17.98;11.52;;;1.20;74.00;;;;;;4999818;28;20365;-79
2022/03/07 08:22:59;;;;;;;20.55;12.68;;;1.30;73.00;;;;;;5000447;28;20034;-79
2022/03/07 08:25:25;;;;;;;18.38;11.80;;;1.40;71.70;;;;;;4999765;28;20046;-79
2022/03/07 08:27:52;;;;;;;22.15;12.38;;;1.30;72.40;;;;;;5000964;28;20026;-80
2022/03/07 08:30:22;;;;;;;22.23;12.60;;;1.30;72.30;;;;;;5000355;28;20057;-79
2022/03/07 08:32:48;;;;;;;21.63;12.85;;;1.30;71.90;;;;;;5005839;28;20101;-79
2022/03/07 08:35:14;;;;;;;20.08;12.30;;;1.30;71.90;;;;;;5020280;28;20013;-78
2022/03/07 08:37:42;;;;;;;24.35;13.38;;;1.40;72.40;;;;;;5026940;28;20026;-80
2022/03/07 08:40:08;;;;;;;19.58;12.32;;;1.50;72.40;;;;;;5025159;28;20025;-78
2022/03/07 08:42:34;;;;;;;17.55;12.43;;;1.60;72.20;;;;;;5006782;28;20050;-79
2022/03/07 08:45:00;;;;;;;21.85;13.75;;;1.90;69.80;;;;;;5005292;28;20018;-78
2022/03/07 08:47:26;;;;;;;19.52;12.05;;;1.80;69.30;;;;;;5000352;28;20036;-78
2022/03/07 08:49:53;;;;;;;21.95;13.85;;;1.80;69.50;;;;;;4998728;28;20030;-79
2022/03/07 08:52:19;;;;;;;19.27;12.75;;;1.90;68.70;;;;;;4998950;28;20296;-79
2022/03/07 08:54:47;;;;;;;21.10;12.98;;;1.90;68.20;;;;;;4998723;28;20073;-79
2022/03/07 08:57:13;;;;;;;26.02;13.38;;;1.90;67.50;;;;;;4996573;28;20486;-78
2022/03/07 08:59:39;;;;;;;22.30;12.80;;;1.90;68.20;;;;;;4996372;28;20046;-79
2022/03/07 09:02:05;;;;;;;22.17;13.73;;;2.00;67.90;;;;;;4980129;28;20041;-78
2022/03/07 09:04:31;;;;;;;18.23;11.32;;;2.00;66.60;;;;;;5019112;28;20022;-79
2022/03/07 09:06:58;;;;;;;21.20;12.90;;;1.90;67.70;;;;;;5000951;28;20504;-78
2022/03/07 09:09:23;;;;;;;18.42;13.18;;;2.10;67.60;;;;;;5017860;28;20040;-79
2022/03/07 09:11:49;;;;;;;20.35;13.57;;;2.20;67.30;;;;;;5021078;28;20018;-80
2022/03/07 09:14:15;;;;;;;30.75;13.63;;;2.40;66.30;;;;;;5020709;28;20026;-79
2022/03/07 09:16:42;;;;;;;29.17;14.88;;;2.40;65.80;;;;;;5005570;28;20029;-78
2022/03/07 09:19:09;;;;;;;30.52;12.93;;;2.60;64.40;;;;;;5022811;28;20046;-79
2022/03/07 09:21:34;;;;;;;33.30;13.27;;;2.80;65.30;;;;;;5019702;28;20097;-79
2022/03/07 09:24:00;;;;;;;32.83;14.57;;;2.90;64.70;;;;;;5029067;28;20028;-79
2022/03/07 09:26:27;;;;;;;27.13;12.88;;;3.10;64.50;;;;;;5012881;28;20030;-78
2022/03/07 09:28:53;;;;;;;22.20;12.38;;;3.30;62.00;;;;;;5027728;28;20018;-78
2022/03/07 09:31:19;;;;;;;20.98;13.40;;;3.50;63.00;;;;;;5011292;28;20022;-80
2022/03/07 09:33:46;;;;;;;17.77;12.50;;;3.80;62.60;;;;;;5022914;28;20031;-78
2022/03/07 09:36:12;;;;;;;31.77;14.13;;;4.00;61.80;;;;;;5008119;28;20096;-78
2022/03/07 09:38:38;;;;;;;30.45;13.77;;;4.10;59.90;;;;;;5028032;28;20025;-79
2022/03/07 09:41:05;;;;;;;26.95;12.77;;;4.20;59.50;;;;;;5013415;28;20033;-79
2022/03/07 09:43:31;;;;;;;21.50;13.88;;;4.10;59.50;;;;;;5026605;28;20053;-80
2022/03/07 09:45:57;;;;;;;16.67;12.32;;;3.90;60.00;;;;;;5026754;28;20022;-80
2022/03/07 09:48:25;;;;;;;21.40;13.77;;;3.90;60.30;;;;;;5005038;28;20121;-80
2022/03/07 09:50:51;;;;;;;21.33;13.55;;;3.90;59.40;;;;;;5024138;28;20025;-79
2022/03/07 09:53:17;;;;;;;27.23;14.88;;;3.60;59.70;;;;;;5020982;28;20558;-79
2022/03/07 09:55:44;;;;;;;22.45;13.40;;;3.40;61.60;;;;;;5025041;28;20026;-79
2022/03/07 09:58:10;;;;;;;21.10;14.65;;;3.40;61.40;;;;;;5002295;28;20027;-79
2022/03/07 10:00:41;;;;;;;18.98;13.63;;;3.20;61.00;;;;;;5015004;28;20082;-78
2022/03/07 10:03:11;;;;;;;23.05;14.25;;;2.90;62.40;;;;;;5020712;28;20030;-80
2022/03/07 10:05:41;;;;;;;21.83;14.52;;;2.90;62.30;;;;;;5022177;28;20105;-79
2022/03/07 10:08:08;;;;;;;22.38;14.07;;;2.90;63.40;;;;;;5031139;28;20022;-79
2022/03/07 10:10:40;;;;;;;23.05;14.18;;;2.90;63.70;;;;;;5032323;28;20040;-79
2022/03/07 10:13:14;;;;;;;24.23;13.85;;;2.90;63.00;;;;;;5032508;28;20086;-79
2022/03/07 10:15:42;;;;;;;22.48;14.98;;;2.80;62.30;;;;;;5032863;28;20065;-80
2022/03/07 10:18:15;;;;;;;25.23;15.60;;;2.70;62.70;;;;;;5031764;28;20024;-79
2022/03/07 10:20:53;;;;;;;34.58;14.45;;;2.70;63.80;;;;;;5030070;28;20490;-80
2022/03/07 10:23:21;;;;;;;19.38;13.05;;;2.70;64.20;;;;;;5013237;28;20129;-80
2022/03/07 10:25:47;;;;;;;26.42;14.48;;;3.00;64.00;;;;;;5032012;28;20115;-79
2022/03/07 10:28:14;;;;;;;25.25;15.23;;;3.00;63.30;;;;;;5033071;28;20045;-79
2022/03/07 10:30:40;;;;;;;24.73;15.00;;;2.90;62.70;;;;;;5015160;28;20040;-79
2022/03/07 10:33:13;;;;;;;24.30;14.57;;;2.80;63.40;;;;;;5034309;28;20018;-80
2022/03/07 10:35:47;;;;;;;28.80;14.38;;;2.80;63.20;;;;;;5010579;28;20105;-80
2022/03/07 10:38:18;;;;;;;27.77;14.90;;;3.00;63.80;;;;;;5036086;28;20018;-81
2022/03/07 10:40:52;;;;;;;24.65;15.32;;;3.40;62.90;;;;;;5018053;28;20010;-80
2022/03/07 10:43:18;;;;;;;25.52;16.10;;;3.60;63.40;;;;;;5025917;28;20022;-80
2022/03/07 10:45:56;;;;;;;28.38;15.73;;;3.80;60.90;;;;;;5023718;28;20097;-80
2022/03/07 10:48:24;;;;;;;29.05;14.77;;;3.80;60.40;;;;;;5025827;28;20433;-80
2022/03/07 10:50:55;;;;;;;23.98;14.57;;;3.70;59.10;;;;;;5024882;28;20022;-81
2022/03/07 10:53:22;;;;;;;24.13;14.88;;;3.50;60.00;;;;;;5008354;28;20021;-82
2022/03/07 10:55:56;;;;;;;23.38;15.82;;;3.30;59.80;;;;;;5008331;28;20026;-80
2022/03/07 10:58:23;;;;;;;23.58;14.27;;;3.20;61.20;;;;;;5009340;28;20421;-82
2022/03/07 11:00:54;;;;;;;18.70;14.00;;;3.20;60.20;;;;;;5023446;28;20041;-80
2022/03/07 11:03:23;;;;;;;26.05;15.27;;;3.30;60.30;;;;;;5023428;28;20525;-81
2022/03/07 11:05:49;;;;;;;21.73;14.30;;;3.20;59.20;;;;;;5018927;28;20097;-80
2022/03/07 11:08:16;;;;;;;22.40;14.35;;;3.10;60.20;;;;;;5025844;28;20026;-82
2022/03/07 11:10:47;;;;;;;19.77;13.93;;;3.10;60.50;;;;;;5024709;28;20021;-79
2022/03/07 11:13:17;;;;;;;20.48;14.60;;;3.10;59.80;;;;;;5025194;28;20068;-81
2022/03/07 11:15:45;;;;;;;24.27;13.63;;;3.30;58.80;;;;;;5025206;28;20038;-80
2022/03/07 11:18:13;;;;;;;21.67;14.77;;;3.20;58.30;;;;;;5024273;28;20017;-79
2022/03/07 11:20:44;;;;;;;22.85;15.18;;;3.30;59.70;;;;;;5024382;28;20155;-81
2022/03/07 11:23:17;;;;;;;21.40;15.13;;;3.40;59.10;;;;;;5044634;23;20058;-83
2022/03/07 11:25:46;;;;;;;21.95;13.95;;;3.50;58.80;;;;;;5037322;28;20053;-82
2022/03/07 11:28:18;;;;;;;24.40;14.77;;;3.50;57.90;;;;;;5019321;28;20053;-81
2022/03/07 11:30:45;;;;;;;23.02;14.88;;;3.40;57.80;;;;;;5019924;28;20097;-81
2022/03/07 11:33:12;;;;;;;20.40;14.18;;;3.40;57.90;;;;;;5021435;28;20038;-81
2022/03/07 11:35:45;;;;;;;22.77;15.45;;;3.30;58.20;;;;;;5019217;28;20058;-82
2022/03/07 11:38:17;;;;;;;25.60;14.27;;;3.20;58.10;;;;;;5019894;28;20025;-81
2022/03/07 11:41:03;;;;;;;26.02;15.35;;;3.10;59.40;;;;;;5019969;28;20116;-80
2022/03/07 11:43:31;;;;;;;22.48;15.60;;;3.00;59.50;;;;;;5002921;28;20015;-82
2022/03/07 11:45:59;;;;;;;28.27;16.00;;;2.90;59.10;;;;;;5000310;28;20031;-83
2022/03/07 11:48:26;;;;;;;29.58;16.85;;;2.70;59.40;;;;;;5017587;28;20049;-82
2022/03/07 11:50:55;;;;;;;23.00;15.73;;;2.60;59.70;;;;;;5016597;28;20026;-83
2022/03/07 11:53:21;;;;;;;23.33;15.02;;;2.50;60.30;;;;;;5016845;28;20034;-85
2022/03/07 11:55:49;;;;;;;22.67;14.60;;;2.60;60.10;;;;;;5014821;28;20077;-83
2022/03/07 11:58:30;;;;;;;27.75;15.75;;;2.70;59.80;;;;;;5004641;28;20022;-82
2022/03/07 12:01:07;;;;;;;21.52;14.35;;;2.80;59.50;;;;;;5008089;28;20050;-83
2022/03/07 12:03:34;;;;;;;20.92;14.93;;;2.90;59.00;;;;;;5030199;28;20021;-83
2022/03/07 12:06:06;;;;;;;20.00;13.95;;;3.00;57.70;;;;;;5012169;28;20022;-82
2022/03/07 12:08:48;;;;;;;26.33;16.40;;;3.00;58.30;;;;;;5027637;28;20028;-84
2022/03/07 12:11:32;;;;;;;27.02;15.18;;;3.00;56.60;;;;;;5008768;28;20116;-85
2022/03/07 12:14:04;;;;;;;22.30;15.10;;;2.90;57.80;;;;;;5006784;28;20026;-83
2022/03/07 12:16:32;;;;;;;;;;;2.90;58.00;;;;;;5005899;28;20026;-83
2022/03/07 12:19:13;;;;;;;20.38;13.95;;;2.90;58.40;;;;;;5021003;28;19909;-83
2022/03/07 12:21:41;;;;;;;25.77;15.63;;;2.90;58.60;;;;;;5008898;28;20045;-83
2022/03/07 12:24:09;;;;;;;24.38;15.82;;;3.00;57.70;;;;;;5006403;28;20101;-84
2022/03/07 12:26:55;;;;;;;31.50;16.35;;;3.10;57.70;;;;;;5024504;28;20105;-81
2022/03/07 12:29:26;;;;;;;19.60;14.52;;;3.00;57.40;;;;;;5028483;28;20030;-84
2022/03/07 12:31:56;;;;;;;20.98;15.40;;;2.90;57.90;;;;;;5019925;28;20010;-82
2022/03/07 12:34:25;;;;;;;21.77;15.63;;;3.00;57.40;;;;;;5029492;28;20018;-82